createdAt,value
2023-05-20T00:03:46.713Z,80.53
2023-05-20T00:08:49.742Z,80.76
2023-05-20T00:13:52.585Z,80.45
2023-05-20T00:18:56.972Z,80.29
2023-05-20T00:24:02.200Z,80.15
2023-05-20T00:29:05.018Z,79.80
2023-05-20T00:34:08.285Z,79.59
2023-05-20T00:39:11.241Z,79.51
2023-05-20T00:44:14.162Z,79.36
2023-05-20T00:49:17.782Z,79.24
2023-05-20T00:54:22.117Z,79.15
2023-05-20T00:59:26.456Z,79.06
2023-05-20T01:04:29.839Z,78.80
2023-05-20T01:09:33.687Z,78.80
2023-05-20T01:14:42.086Z,78.87
2023-05-20T01:19:45.700Z,78.74
2023-05-20T01:24:48.805Z,78.73
2023-05-20T01:29:52.997Z,78.75
2023-05-20T01:34:58.103Z,78.68
2023-05-20T01:40:01.322Z,78.76
2023-05-20T01:45:04.940Z,78.80
2023-05-20T01:50:08.486Z,78.77
2023-05-20T01:55:11.343Z,78.73
2023-05-20T02:00:14.388Z,78.75
2023-05-20T02:05:17.279Z,78.70
2023-05-20T02:10:20.137Z,78.72
2023-05-20T02:15:22.928Z,78.65
2023-05-20T02:20:25.823Z,78.64
2023-05-20T02:25:28.609Z,78.55
2023-05-20T02:30:32.055Z,78.51
2023-05-20T02:35:35.741Z,78.33
2023-05-20T02:40:39.336Z,78.22
2023-05-20T02:45:42.486Z,78.06
2023-05-20T02:50:47.714Z,78.06
2023-05-20T02:55:50.693Z,77.97
2023-05-20T03:00:53.539Z,77.92
2023-05-20T03:05:56.389Z,77.85
2023-05-20T03:10:59.194Z,77.88
2023-05-20T03:16:02.036Z,77.80
2023-05-20T03:21:04.998Z,77.67
2023-05-20T03:26:07.806Z,77.75
2023-05-20T03:31:10.677Z,77.50
2023-05-20T03:36:13.573Z,77.39
2023-05-20T03:41:16.657Z,77.25
2023-05-20T03:46:19.523Z,76.92
2023-05-20T03:51:22.877Z,76.72
2023-05-20T03:56:26.571Z,76.48
2023-05-20T04:01:29.868Z,76.28
2023-05-20T04:06:36.248Z,76.11
2023-05-20T04:11:39.423Z,76.03
2023-05-20T04:16:43.710Z,75.83
2023-05-20T04:21:46.860Z,75.63
2023-05-20T04:26:50.235Z,75.34
2023-05-20T04:31:53.884Z,74.77
2023-05-20T04:36:58.129Z,74.55
2023-05-20T04:42:00.949Z,74.10
2023-05-20T04:47:04.540Z,73.52
2023-05-20T04:52:07.484Z,72.86
2023-05-20T04:57:11.305Z,72.53
2023-05-20T05:02:14.691Z,71.99
2023-05-20T05:07:17.541Z,71.12
2023-05-20T05:12:21.274Z,70.78
2023-05-20T05:17:24.399Z,70.25
2023-05-20T05:22:27.273Z,69.56
2023-05-20T05:27:30.216Z,69.15
2023-05-20T05:32:33.794Z,68.53
2023-05-20T05:37:37.112Z,68.65
2023-05-20T05:42:39.979Z,67.63
2023-05-20T05:47:43.362Z,66.93
2023-05-20T05:52:46.827Z,67.15
2023-05-20T05:57:49.742Z,66.80
2023-05-20T06:02:52.806Z,66.45
2023-05-20T06:07:56.300Z,66.38
2023-05-20T06:12:59.136Z,65.56
2023-05-20T06:18:02.128Z,64.51
2023-05-20T06:23:05.122Z,63.50
2023-05-20T06:28:08.544Z,63.07
2023-05-20T06:33:11.859Z,60.96
2023-05-20T06:38:14.707Z,59.85
2023-05-20T06:43:18.229Z,58.39
2023-05-20T06:48:21.037Z,57.54
2023-05-20T06:53:24.116Z,57.12
2023-05-20T06:58:27.303Z,55.29
2023-05-20T07:03:30.216Z,55.56
2023-05-20T07:08:33.042Z,53.97
2023-05-20T07:13:35.972Z,53.35
2023-05-20T07:18:38.839Z,52.06
2023-05-20T07:23:41.686Z,51.00
2023-05-20T07:28:45.756Z,50.08
2023-05-20T07:33:48.550Z,48.54
2023-05-20T07:39:01.784Z,47.79
2023-05-20T07:44:08.898Z,47.17
2023-05-20T07:49:12.069Z,45.31
2023-05-20T07:54:16.236Z,43.91
2023-05-20T07:59:19.182Z,42.94
2023-05-20T08:04:22.068Z,42.35
2023-05-20T08:09:24.935Z,43.43
2023-05-20T08:14:27.848Z,44.26
2023-05-20T08:19:30.877Z,43.88
2023-05-20T08:24:33.776Z,44.52
2023-05-20T08:29:36.619Z,44.57
2023-05-20T08:34:40.169Z,45.17
2023-05-20T08:39:43.225Z,46.26
2023-05-20T08:44:49.829Z,47.45
2023-05-20T08:49:52.695Z,48.74
2023-05-20T08:54:58.223Z,49.00
2023-05-20T09:00:01.344Z,49.32
2023-05-20T09:05:05.701Z,49.81
2023-05-20T09:10:10.951Z,50.19
2023-05-20T09:15:15.123Z,50.06
2023-05-20T09:20:18.519Z,50.48
2023-05-20T09:25:23.999Z,50.57
2023-05-20T09:30:27.429Z,49.99
2023-05-20T09:35:30.760Z,49.33
2023-05-20T09:40:33.867Z,48.58
2023-05-20T09:45:38.946Z,48.13
2023-05-20T09:50:42.904Z,47.66
2023-05-20T09:55:46.669Z,45.94
2023-05-20T10:00:50.424Z,44.77
2023-05-20T10:06:29.220Z,43.29
2023-05-20T10:11:45.468Z,43.17
2023-05-20T10:16:55.008Z,43.38
2023-05-20T10:22:03.223Z,43.90
2023-05-20T10:27:11.084Z,44.27
2023-05-20T10:32:36.003Z,44.36
2023-05-20T10:37:46.254Z,45.16
2023-05-20T10:42:49.648Z,44.96
2023-05-20T10:47:58.280Z,45.06
2023-05-20T10:53:06.987Z,45.13
2023-05-20T10:58:12.746Z,44.70
2023-05-20T11:03:18.499Z,43.78
2023-05-20T11:08:28.949Z,44.08
2023-05-20T11:13:32.519Z,44.67
2023-05-20T11:18:36.698Z,44.68
2023-05-20T11:23:40.703Z,45.03
2023-05-20T11:28:44.403Z,44.75
2023-05-20T11:33:47.858Z,44.36
2023-05-20T11:38:51.816Z,44.69
2023-05-20T11:44:01.412Z,45.23
2023-05-20T11:49:04.429Z,45.14
2023-05-20T11:54:08.338Z,45.04
2023-05-20T11:59:11.338Z,45.69
2023-05-20T12:04:15.300Z,46.03
2023-05-20T12:09:19.501Z,46.02
2023-05-20T12:14:25.048Z,46.19
2023-05-20T12:19:28.105Z,45.86
2023-05-20T12:24:31.384Z,45.57
2023-05-20T12:29:34.720Z,45.92
2023-05-20T12:34:38.262Z,46.04
2023-05-20T12:39:41.145Z,45.25
2023-05-20T12:44:44.002Z,45.32
2023-05-20T12:49:46.894Z,45.44
2023-05-20T12:54:50.176Z,44.66
2023-05-20T12:59:53.257Z,44.56
2023-05-20T13:04:56.200Z,44.75
2023-05-20T13:10:00.160Z,44.94
2023-05-20T13:15:04.417Z,44.93
2023-05-20T13:20:08.549Z,45.03
2023-05-20T13:25:12.211Z,44.32
2023-05-20T13:30:15.312Z,43.76
2023-05-20T13:35:18.384Z,43.36
2023-05-20T13:40:21.555Z,43.82
2023-05-20T13:45:33.183Z,43.19
2023-05-20T13:50:37.937Z,43.69
2023-05-20T13:55:41.864Z,44.24
2023-05-20T14:00:44.903Z,44.07
2023-05-20T14:05:47.788Z,44.60
2023-05-20T14:10:54.886Z,44.36
2023-05-20T14:15:58.449Z,44.51
2023-05-20T14:21:01.374Z,44.37
2023-05-20T14:26:04.392Z,43.80
2023-05-20T14:31:09.693Z,43.66
2023-05-20T14:36:12.953Z,43.84
2023-05-20T14:41:15.843Z,43.82
2023-05-20T14:46:18.784Z,44.07
2023-05-20T14:51:21.848Z,43.75
2023-05-20T14:56:24.753Z,43.87
2023-05-20T15:01:27.940Z,43.85
2023-05-20T15:06:33.892Z,43.39
2023-05-20T15:11:36.845Z,43.33
2023-05-20T15:16:39.781Z,42.74
2023-05-20T15:21:44.062Z,42.47
2023-05-20T15:26:47.064Z,42.26
2023-05-20T15:31:50.028Z,41.91
2023-05-20T15:36:53.262Z,41.84
2023-05-20T15:41:56.159Z,41.88
2023-05-20T15:46:59.159Z,42.15
2023-05-20T15:52:04.041Z,42.69
2023-05-20T15:57:07.679Z,42.94
2023-05-20T16:02:10.740Z,43.26
2023-05-20T16:07:15.143Z,43.44
2023-05-20T16:12:18.035Z,43.68
2023-05-20T16:17:21.856Z,43.86
2023-05-20T16:22:26.901Z,44.02
2023-05-20T16:27:30.453Z,44.46
2023-05-20T16:32:33.897Z,44.57
2023-05-20T16:37:36.881Z,44.81
2023-05-20T16:42:40.134Z,44.96
2023-05-20T16:47:43.062Z,45.16
2023-05-20T16:52:46.076Z,45.20
2023-05-20T16:57:50.610Z,45.29
2023-05-20T17:02:54.024Z,45.64
2023-05-20T17:08:00.106Z,45.81
2023-05-20T17:13:04.413Z,46.24
2023-05-20T17:18:08.143Z,46.53
2023-05-20T17:23:11.272Z,46.72
2023-05-20T17:28:14.172Z,47.06
2023-05-20T17:33:17.071Z,47.45
2023-05-20T17:38:22.617Z,47.87
2023-05-20T17:43:25.934Z,48.31
2023-05-20T17:48:28.864Z,48.70
2023-05-20T17:53:31.775Z,49.13
2023-05-20T17:58:34.949Z,49.62
2023-05-20T18:03:39.946Z,50.10
2023-05-20T18:08:43.201Z,50.53
2023-05-20T18:13:46.576Z,50.92
2023-05-20T18:18:49.467Z,51.41
2023-05-20T18:23:52.448Z,51.82
2023-05-20T18:28:55.756Z,52.26
2023-05-20T18:33:58.627Z,52.70
2023-05-20T18:39:01.855Z,53.20
2023-05-20T18:44:06.105Z,53.84
2023-05-20T18:49:14.594Z,54.47
2023-05-20T18:54:17.861Z,55.04
2023-05-20T18:59:20.902Z,55.35
2023-05-20T19:04:25.260Z,55.89
2023-05-20T19:09:28.132Z,56.37
2023-05-20T19:14:31.070Z,57.04
2023-05-20T19:19:34.960Z,57.50
2023-05-20T19:24:38.704Z,57.97
2023-05-20T19:29:41.613Z,58.47
2023-05-20T19:34:44.530Z,58.83
2023-05-20T19:39:47.805Z,59.22
2023-05-20T19:44:50.747Z,59.67
2023-05-20T19:49:53.785Z,60.24
2023-05-20T19:54:56.789Z,60.64
2023-05-20T19:59:59.696Z,61.05
2023-05-20T20:05:04.613Z,61.29
2023-05-20T20:10:08.560Z,61.67
2023-05-20T20:15:11.629Z,62.08
2023-05-20T20:20:14.534Z,62.42
2023-05-20T20:25:17.919Z,62.76
2023-05-20T20:30:22.014Z,63.10
2023-05-20T20:35:24.923Z,63.57
2023-05-20T20:40:28.526Z,64.06
2023-05-20T20:45:31.376Z,64.25
2023-05-20T20:50:36.442Z,64.74
2023-05-20T20:55:39.733Z,64.97
2023-05-20T21:00:44.588Z,65.41
2023-05-20T21:05:48.708Z,65.85
2023-05-20T21:10:51.492Z,66.08
2023-05-20T21:15:54.894Z,66.44
2023-05-20T21:20:57.737Z,66.86
2023-05-20T21:26:00.609Z,67.31
2023-05-20T21:31:03.597Z,67.54
2023-05-20T21:36:06.664Z,67.70
2023-05-20T21:41:09.534Z,67.89
2023-05-20T21:46:13.618Z,68.27
2023-05-20T21:51:16.573Z,68.57
2023-05-20T21:56:19.772Z,68.90
2023-05-20T22:01:22.722Z,69.19
2023-05-20T22:06:26.126Z,69.70
2023-05-20T22:11:29.216Z,70.02
2023-05-20T22:16:32.083Z,70.28
2023-05-20T22:21:42.677Z,70.29
2023-05-20T22:26:49.545Z,70.92
2023-05-20T22:31:53.141Z,70.77
2023-05-20T22:36:56.349Z,71.03
2023-05-20T22:41:59.159Z,71.44
2023-05-20T22:47:02.029Z,71.83
2023-05-20T22:52:06.462Z,72.05
2023-05-20T22:57:09.264Z,72.19
2023-05-20T23:02:12.192Z,72.42
2023-05-20T23:07:16.401Z,72.86
2023-05-20T23:12:19.217Z,73.02
2023-05-20T23:17:22.333Z,73.46
2023-05-20T23:22:25.259Z,73.52
2023-05-20T23:27:28.155Z,73.61
2023-05-20T23:32:31.462Z,73.25
2023-05-20T23:37:34.680Z,73.58
2023-05-20T23:42:37.696Z,74.23
2023-05-20T23:47:40.558Z,74.80
2023-05-20T23:52:43.417Z,74.84
2023-05-20T23:57:46.268Z,75.20
